MSC Luna F — CQII4 — position and weather

sailwx.info

Track history (hours):
 
Tides and Currents Weather Stations Pressure Air Temp Water Temp Dewpoint Dewpoint Depression Visibility Wind Speed Wind Dir Waves Ship Positions

MSC Luna F

Last reported at 2018-Jan-23 21:30 UTC. Time now 2018-Jan-23 21:41 UTC.
Position N 37°33' E 024°23'.

Length 139 m; draft 6.9 m.

Type: Cargo ship. MMSI: 255805968.

Date/timePositionNaut miles runAvg speedWind from/ knotsBaromVisibWave heightAir tempDewpointWater temp
2018-Jan-23 21:30N 37°33' E 024°23'713.5
2018-Jan-23 21:01N 37°38' E 024°29'612.5
2018-Jan-23 20:30N 37°44' E 024°32'713.5
2018-Jan-23 20:01N 37°51' E 024°34'713.8
2018-Jan-23 19:28N 37°58' E 024°37'  
2018-Jan-21 08:06N 38°18' E 025°19'211.5
2018-Jan-21 07:55N 38°18' E 025°17'611.7
2018-Jan-21 07:25N 38°16' E 025°09'3211.6
2018-Jan-21 04:41N 37°57' E 024°38'211.3
2018-Jan-21 04:29N 37°55' E 024°36'511.4
2018-Jan-21 04:00N 37°50' E 024°34'611.4
2018-Jan-21 03:30N 37°44' E 024°32'611.6
2018-Jan-21 03:00N 37°39' E 024°29'611.8
2018-Jan-21 02:30N 37°34' E 024°25'612.1
2018-Jan-21 02:00N 37°29' E 024°20'612.3
2018-Jan-21 01:30N 37°24' E 024°16'612.3
2018-Jan-21 01:00N 37°19' E 024°11'612.2
2018-Jan-21 00:30N 37°14' E 024°07'612.0
2018-Jan-21 00:00N 37°09' E 024°03'612.3
2018-Jan-20 23:30N 37°04' E 023°59'612.3
2018-Jan-20 23:00N 36°59' E 023°54'712.4
2018-Jan-20 22:28N 36°53' E 023°50'  
Track history (hours):
 
Tides and Currents Weather Stations Pressure Air Temp Water Temp Dewpoint Dewpoint Depression Visibility Wind Speed Wind Dir Waves Ship Positions

MSC Luna F

Last reported at 2018-Jan-23 21:30 UTC. Time now 2018-Jan-23 21:41 UTC.
Position N 37°33' E 024°23'.

Length 139 m; draft 6.9 m.

Type: Cargo ship. MMSI: 255805968.

Date/timePositionNaut miles runAvg speedWind from/ knotsBaromVisibWave heightAir tempDewpointWater temp
2018-Jan-23 21:30N 37°33' E 024°23'713.5
2018-Jan-23 21:01N 37°38' E 024°29'612.5
2018-Jan-23 20:30N 37°44' E 024°32'713.5
2018-Jan-23 20:01N 37°51' E 024°34'713.8
2018-Jan-23 19:28N 37°58' E 024°37'  
2018-Jan-21 08:06N 38°18' E 025°19'211.5
2018-Jan-21 07:55N 38°18' E 025°17'611.7
2018-Jan-21 07:25N 38°16' E 025°09'3211.6
2018-Jan-21 04:41N 37°57' E 024°38'211.3
2018-Jan-21 04:29N 37°55' E 024°36'511.4
2018-Jan-21 04:00N 37°50' E 024°34'611.4
2018-Jan-21 03:30N 37°44' E 024°32'611.6
2018-Jan-21 03:00N 37°39' E 024°29'611.8
2018-Jan-21 02:30N 37°34' E 024°25'612.1
2018-Jan-21 02:00N 37°29' E 024°20'612.3
2018-Jan-21 01:30N 37°24' E 024°16'612.3
2018-Jan-21 01:00N 37°19' E 024°11'612.2
2018-Jan-21 00:30N 37°14' E 024°07'612.0
2018-Jan-21 00:00N 37°09' E 024°03'612.3
2018-Jan-20 23:30N 37°04' E 023°59'612.3
2018-Jan-20 23:00N 36°59' E 023°54'712.4
2018-Jan-20 22:28N 36°53' E 023°50'  

Dump ship's entire track history